Terminal Aerodrome Forecast
Issued by NWS Buffalo, NY

Home | Current Version | Previous Version | Text Only | Print | Product List | Glossary On
Versions: 1 2 3 4 5 6 7 8 9 10 11 12 13 14 15 16 17 18 19 20 21 22 23 24
000
FTUS41 KBUF 090311 AAA
TAFROC
TAF AMD
KROC 090311Z 0903/0924 27015G25KT P6SM VCSH BKN070
     FM090600 29013KT 2SM -SN OVC025
     FM090900 30012KT 1/2SM SN OVC012
     FM091100 30012KT 2SM -SN OVC020
     FM091500 31014G20KT 4SM -SHSN OVC040
     FM092000 29012KT P6SM VCSH OVC050=

USA.gov is the U.S. government's official web portal to all federal, state and local government web resources and services.